createdAt,value
2023-05-25T00:00:57.467Z,489.00
2023-05-25T00:01:46.004Z,489.00
2023-05-25T00:02:45.098Z,489.00
2023-05-25T00:03:45.104Z,488.00
2023-05-25T00:04:44.922Z,489.00
2023-05-25T00:05:44.946Z,491.00
2023-05-25T00:06:44.894Z,492.00
2023-05-25T00:07:44.844Z,492.00
2023-05-25T00:08:44.796Z,495.00
2023-05-25T00:09:44.802Z,493.00
2023-05-25T00:10:44.722Z,490.00
2023-05-25T00:11:44.716Z,489.00
2023-05-25T00:12:44.718Z,489.00
2023-05-25T00:13:44.664Z,488.00
2023-05-25T00:14:44.648Z,487.00
2023-05-25T00:15:44.738Z,488.00
2023-05-25T00:16:44.640Z,486.00
2023-05-25T00:17:44.665Z,486.00
2023-05-25T00:18:44.636Z,489.00
2023-05-25T00:19:44.650Z,489.00
2023-05-25T00:20:44.677Z,491.00
2023-05-25T00:21:44.665Z,490.00
2023-05-25T00:22:44.705Z,489.00
2023-05-25T00:23:44.751Z,489.00
2023-05-25T00:24:44.755Z,489.00
2023-05-25T00:25:44.953Z,487.00
2023-05-25T00:26:44.762Z,483.00
2023-05-25T00:27:44.777Z,484.00
2023-05-25T00:28:44.834Z,489.00
2023-05-25T00:29:44.812Z,490.00
2023-05-25T00:30:44.855Z,494.00
2023-05-25T00:31:44.832Z,493.00
2023-05-25T00:32:44.886Z,495.00
2023-05-25T00:33:44.902Z,496.00
2023-05-25T00:34:44.904Z,492.00
2023-05-25T00:35:45.168Z,490.00
2023-05-25T00:36:44.907Z,491.00
2023-05-25T00:37:44.949Z,489.00
2023-05-25T00:38:44.942Z,488.00
2023-05-25T00:39:44.946Z,487.00
2023-05-25T00:40:44.983Z,488.00
2023-05-25T00:41:44.980Z,487.00
2023-05-25T00:42:45.012Z,487.00
2023-05-25T00:43:45.060Z,486.00
2023-05-25T00:44:45.067Z,486.00
2023-05-25T00:45:45.220Z,487.00
2023-05-25T00:46:45.131Z,488.00
2023-05-25T00:47:45.113Z,487.00
2023-05-25T00:48:45.140Z,485.00
2023-05-25T00:49:45.154Z,484.00
2023-05-25T00:50:45.157Z,487.00
2023-05-25T00:51:45.174Z,488.00
2023-05-25T00:52:45.205Z,487.00
2023-05-25T00:53:45.223Z,490.00
2023-05-25T00:54:45.241Z,493.00
2023-05-25T00:55:45.390Z,494.00
2023-05-25T00:56:45.269Z,492.00
2023-05-25T00:57:45.326Z,491.00
2023-05-25T00:58:45.314Z,488.00
2023-05-25T00:59:45.346Z,487.00
2023-05-25T01:00:45.357Z,482.00
2023-05-25T01:01:45.390Z,486.00
2023-05-25T01:02:45.466Z,486.00
2023-05-25T01:03:45.402Z,485.00
2023-05-25T01:04:45.571Z,483.00
2023-05-25T01:05:45.549Z,482.00
2023-05-25T01:06:45.458Z,485.00
2023-05-25T01:07:45.453Z,485.00
2023-05-25T01:08:45.496Z,484.00
2023-05-25T01:09:45.529Z,487.00
2023-05-25T01:10:45.504Z,488.00
2023-05-25T01:11:45.556Z,487.00
2023-05-25T01:12:45.606Z,486.00
2023-05-25T01:13:45.555Z,485.00
2023-05-25T01:14:45.569Z,486.00
2023-05-25T01:15:45.804Z,488.00
2023-05-25T01:16:45.611Z,486.00
2023-05-25T01:17:45.641Z,488.00
2023-05-25T01:18:45.614Z,487.00
2023-05-25T01:19:51.935Z,489.00
2023-05-25T01:20:46.660Z,487.00
2023-05-25T01:21:45.557Z,491.00
2023-05-25T01:22:45.534Z,488.00
2023-05-25T01:23:45.498Z,485.00
2023-05-25T01:24:45.470Z,485.00
2023-05-25T01:25:45.587Z,483.00
2023-05-25T01:26:45.429Z,485.00
2023-05-25T01:27:46.339Z,484.00
2023-05-25T01:28:45.429Z,482.00
2023-05-25T01:29:45.408Z,481.00
2023-05-25T01:30:45.389Z,482.00
2023-05-25T01:31:45.421Z,479.00
2023-05-25T01:32:45.405Z,478.00
2023-05-25T01:33:45.375Z,482.00
2023-05-25T01:34:45.335Z,482.00
2023-05-25T01:35:45.492Z,481.00
2023-05-25T01:36:45.336Z,478.00
2023-05-25T01:37:45.353Z,477.00
2023-05-25T01:38:45.349Z,477.00
2023-05-25T01:39:45.386Z,478.00
2023-05-25T01:40:45.393Z,481.00
2023-05-25T01:41:45.424Z,479.00
2023-05-25T01:42:45.446Z,482.00
2023-05-25T01:43:45.478Z,481.00
2023-05-25T01:44:45.451Z,482.00
2023-05-25T01:45:45.718Z,482.00
2023-05-25T01:46:45.528Z,483.00
2023-05-25T01:47:45.568Z,487.00
2023-05-25T01:48:45.551Z,484.00
2023-05-25T01:49:45.616Z,485.00
2023-05-25T01:50:45.618Z,484.00
2023-05-25T01:51:45.666Z,487.00
2023-05-25T01:52:45.702Z,487.00
2023-05-25T01:53:45.678Z,486.00
2023-05-25T01:54:45.680Z,486.00
2023-05-25T01:55:45.892Z,486.00
2023-05-25T01:56:45.707Z,487.00
2023-05-25T01:57:45.738Z,484.00
2023-05-25T01:58:45.755Z,482.00
2023-05-25T01:59:45.747Z,483.00
2023-05-25T02:00:45.852Z,483.00
2023-05-25T02:01:45.910Z,480.00
2023-05-25T02:02:45.880Z,482.00
2023-05-25T02:03:45.866Z,481.00
2023-05-25T02:04:46.038Z,481.00
2023-05-25T02:05:46.047Z,482.00
2023-05-25T02:06:45.905Z,481.00
2023-05-25T02:07:45.932Z,478.00
2023-05-25T02:08:45.982Z,478.00
2023-05-25T02:09:45.981Z,479.00
2023-05-25T02:10:45.955Z,480.00
2023-05-25T02:11:45.998Z,480.00
2023-05-25T02:12:46.048Z,480.00
2023-05-25T02:13:46.155Z,483.00
2023-05-25T02:14:46.071Z,486.00
2023-05-25T02:15:46.363Z,484.00
2023-05-25T02:16:46.127Z,484.00
2023-05-25T02:17:46.208Z,483.00
2023-05-25T02:18:46.186Z,482.00
2023-05-25T02:19:46.160Z,481.00
2023-05-25T02:20:46.243Z,478.00
2023-05-25T02:21:46.221Z,479.00
2023-05-25T02:22:46.246Z,481.00
2023-05-25T02:23:46.277Z,483.00
2023-05-25T02:24:46.282Z,484.00
2023-05-25T02:25:46.555Z,484.00
2023-05-25T02:26:46.339Z,483.00
2023-05-25T02:27:46.377Z,485.00
2023-05-25T02:28:46.396Z,485.00
2023-05-25T02:29:46.425Z,483.00
2023-05-25T02:30:46.454Z,482.00
2023-05-25T02:31:46.516Z,482.00
2023-05-25T02:32:46.550Z,482.00
2023-05-25T02:33:46.518Z,479.00
2023-05-25T02:34:46.532Z,478.00
2023-05-25T02:35:46.636Z,479.00
2023-05-25T02:36:46.556Z,478.00
2023-05-25T02:37:48.281Z,481.00
2023-05-25T02:38:46.585Z,481.00
2023-05-25T02:39:46.594Z,483.00
2023-05-25T02:40:46.559Z,484.00
2023-05-25T02:41:46.542Z,483.00
2023-05-25T02:42:46.547Z,482.00
2023-05-25T02:43:46.504Z,482.00
2023-05-25T02:44:46.534Z,482.00
2023-05-25T02:45:46.478Z,483.00
2023-05-25T02:46:46.531Z,482.00
2023-05-25T02:47:46.494Z,482.00
2023-05-25T02:48:46.417Z,480.00
2023-05-25T02:49:46.393Z,480.00
2023-05-25T02:50:46.353Z,479.00
2023-05-25T02:51:46.306Z,479.00
2023-05-25T02:52:46.270Z,477.00
2023-05-25T02:53:46.256Z,476.00
2023-05-25T02:54:46.224Z,474.00
2023-05-25T02:55:46.457Z,472.00
2023-05-25T02:56:46.149Z,472.00
2023-05-25T02:57:46.142Z,473.00
2023-05-25T02:58:46.087Z,473.00
2023-05-25T02:59:46.078Z,475.00
2023-05-25T03:00:46.062Z,477.00
2023-05-25T03:01:46.026Z,478.00
2023-05-25T03:02:46.052Z,477.00
2023-05-25T03:03:45.966Z,474.00
2023-05-25T03:04:45.935Z,472.00
2023-05-25T03:05:46.037Z,473.00
2023-05-25T03:06:45.839Z,474.00
2023-05-25T03:07:45.858Z,478.00
2023-05-25T03:08:45.828Z,478.00
2023-05-25T03:09:45.805Z,479.00
2023-05-25T03:10:45.741Z,478.00
2023-05-25T03:11:45.790Z,479.00
2023-05-25T03:12:45.696Z,478.00
2023-05-25T03:13:45.714Z,476.00
2023-05-25T03:14:45.631Z,476.00
2023-05-25T03:15:45.789Z,476.00
2023-05-25T03:16:45.669Z,476.00
2023-05-25T03:17:45.645Z,478.00
2023-05-25T03:18:45.533Z,477.00
2023-05-25T03:19:45.505Z,476.00
2023-05-25T03:20:45.455Z,476.00
2023-05-25T03:21:45.451Z,479.00
2023-05-25T03:22:45.401Z,479.00
2023-05-25T03:23:45.419Z,478.00
2023-05-25T03:24:45.332Z,476.00
2023-05-25T03:25:45.549Z,475.00
2023-05-25T03:26:45.338Z,474.00
2023-05-25T03:27:45.371Z,475.00
2023-05-25T03:28:45.392Z,474.00
2023-05-25T03:29:45.401Z,476.00
2023-05-25T03:30:45.419Z,477.00
2023-05-25T03:31:45.530Z,475.00
2023-05-25T03:32:45.512Z,473.00
2023-05-25T03:33:45.505Z,474.00
2023-05-25T03:34:45.549Z,474.00
2023-05-25T03:35:45.756Z,473.00
2023-05-25T03:36:45.604Z,472.00
2023-05-25T03:37:45.628Z,472.00
2023-05-25T03:38:45.652Z,472.00
2023-05-25T03:39:45.669Z,470.00
2023-05-25T03:40:45.692Z,470.00
2023-05-25T03:41:45.750Z,471.00
2023-05-25T03:42:45.776Z,470.00
2023-05-25T03:43:45.809Z,472.00
2023-05-25T03:44:45.844Z,475.00
2023-05-25T03:45:45.979Z,477.00
2023-05-25T03:46:46.041Z,479.00
2023-05-25T03:47:45.945Z,479.00
2023-05-25T03:48:45.916Z,478.00
2023-05-25T03:49:45.959Z,479.00
2023-05-25T03:50:45.961Z,477.00
2023-05-25T03:51:46.001Z,473.00
2023-05-25T03:52:46.045Z,474.00
2023-05-25T03:53:46.073Z,476.00
2023-05-25T03:54:46.068Z,477.00
2023-05-25T03:55:46.288Z,476.00
2023-05-25T03:56:52.103Z,473.00
2023-05-25T03:57:47.098Z,472.00
2023-05-25T03:58:46.075Z,473.00
2023-05-25T03:59:46.071Z,473.00
2023-05-25T04:00:46.054Z,472.00
2023-05-25T04:01:46.008Z,469.00
2023-05-25T04:02:46.103Z,470.00
2023-05-25T04:03:46.135Z,471.00
2023-05-25T04:04:46.062Z,471.00
2023-05-25T04:05:46.171Z,469.00
2023-05-25T04:06:45.907Z,469.00
2023-05-25T04:07:45.866Z,470.00
2023-05-25T04:08:45.890Z,472.00
2023-05-25T04:09:45.799Z,470.00
2023-05-25T04:10:45.870Z,470.00
2023-05-25T04:11:45.904Z,472.00
2023-05-25T04:12:45.879Z,472.00
2023-05-25T04:13:45.874Z,474.00
2023-05-25T04:14:45.957Z,474.00
2023-05-25T04:15:46.177Z,472.00
2023-05-25T04:16:46.235Z,473.00
2023-05-25T04:17:46.030Z,472.00
2023-05-25T04:18:46.001Z,469.00
2023-05-25T04:19:46.011Z,468.00
2023-05-25T04:20:46.035Z,469.00
2023-05-25T04:21:46.053Z,469.00
2023-05-25T04:22:46.114Z,469.00
2023-05-25T04:23:46.109Z,466.00
2023-05-25T04:24:46.110Z,468.00
2023-05-25T04:25:46.313Z,469.00
2023-05-25T04:26:46.189Z,468.00
2023-05-25T04:27:46.208Z,469.00
2023-05-25T04:28:46.225Z,470.00
2023-05-25T04:29:46.245Z,469.00
2023-05-25T04:30:46.250Z,469.00
2023-05-25T04:31:46.323Z,471.00
2023-05-25T04:32:46.322Z,474.00
2023-05-25T04:33:46.337Z,474.00
2023-05-25T04:34:46.317Z,473.00
2023-05-25T04:35:46.514Z,470.00
2023-05-25T04:36:46.390Z,468.00
2023-05-25T04:37:46.400Z,467.00
2023-05-25T04:38:46.387Z,468.00
2023-05-25T04:39:46.421Z,469.00
2023-05-25T04:40:46.436Z,468.00
2023-05-25T04:41:46.443Z,470.00
2023-05-25T04:42:46.471Z,470.00
2023-05-25T04:44:04.577Z,471.00
2023-05-25T04:44:47.468Z,471.00
2023-05-25T04:45:46.642Z,472.00
2023-05-25T04:46:46.412Z,472.00
2023-05-25T04:47:46.392Z,472.00
2023-05-25T04:48:46.369Z,474.00
2023-05-25T04:49:46.317Z,473.00
2023-05-25T04:50:46.328Z,472.00
2023-05-25T04:51:46.279Z,469.00
2023-05-25T04:52:46.317Z,468.00
2023-05-25T04:53:46.207Z,469.00
2023-05-25T04:54:46.217Z,468.00
2023-05-25T04:55:46.547Z,468.00
2023-05-25T04:56:46.148Z,469.00
2023-05-25T04:57:46.134Z,470.00
2023-05-25T04:58:46.173Z,471.00
2023-05-25T04:59:46.214Z,471.00
2023-05-25T05:00:46.427Z,473.00
2023-05-25T05:01:46.342Z,472.00
2023-05-25T05:02:46.354Z,471.00
2023-05-25T05:03:46.398Z,471.00
2023-05-25T05:04:46.300Z,469.00
2023-05-25T05:05:46.423Z,468.00
2023-05-25T05:06:46.318Z,467.00
2023-05-25T05:07:46.334Z,469.00
2023-05-25T05:08:46.381Z,471.00
2023-05-25T05:09:46.410Z,472.00
2023-05-25T05:10:46.412Z,472.00
2023-05-25T05:11:46.357Z,476.00
2023-05-25T05:12:46.374Z,477.00
2023-05-25T05:13:46.409Z,475.00
2023-05-25T05:14:46.411Z,475.00
2023-05-25T05:15:46.566Z,474.00
2023-05-25T05:16:46.444Z,473.00
2023-05-25T05:17:46.509Z,471.00
2023-05-25T05:18:46.451Z,471.00
2023-05-25T05:19:46.495Z,471.00
2023-05-25T05:20:46.508Z,472.00
2023-05-25T05:21:46.542Z,473.00
2023-05-25T05:22:46.508Z,474.00
2023-05-25T05:23:46.516Z,474.00
2023-05-25T05:24:46.555Z,473.00
2023-05-25T05:25:46.656Z,473.00
2023-05-25T05:26:57.822Z,473.00
2023-05-25T05:27:47.559Z,472.00
2023-05-25T05:28:46.518Z,474.00
2023-05-25T05:29:46.499Z,474.00
2023-05-25T05:30:46.448Z,476.00
2023-05-25T05:31:46.541Z,475.00
2023-05-25T05:33:25.542Z,477.00
2023-05-25T05:34:25.400Z,479.00
2023-05-25T05:35:25.427Z,483.00
2023-05-25T05:36:25.386Z,483.00
2023-05-25T05:37:25.386Z,478.00
2023-05-25T05:38:25.368Z,479.00
2023-05-25T05:39:25.354Z,482.00
2023-05-25T05:40:25.341Z,490.00
2023-05-25T05:41:25.326Z,486.00
2023-05-25T05:42:25.350Z,485.00
2023-05-25T05:43:25.314Z,535.00
2023-05-25T05:44:28.740Z,541.00
2023-05-25T05:45:25.302Z,551.00
2023-05-25T05:46:25.312Z,555.00
2023-05-25T05:47:25.295Z,563.00
2023-05-25T05:48:25.254Z,603.00
2023-05-25T05:49:25.505Z,622.00
2023-05-25T05:50:25.237Z,694.00
2023-05-25T05:51:25.204Z,695.00
2023-05-25T05:52:25.201Z,708.00
2023-05-25T05:53:25.267Z,728.00
2023-05-25T05:54:25.214Z,759.00
2023-05-25T05:55:25.177Z,822.00
2023-05-25T05:56:25.169Z,843.00
2023-05-25T05:57:25.164Z,864.00
2023-05-25T05:58:25.146Z,950.00
2023-05-25T05:59:25.155Z,941.00
2023-05-25T06:00:25.102Z,942.00
2023-05-25T06:01:25.069Z,1017.00
2023-05-25T06:02:25.139Z,1056.00
2023-05-25T06:03:25.102Z,1081.00
2023-05-25T06:04:25.037Z,1211.00
2023-05-25T06:05:25.069Z,1180.00
2023-05-25T06:06:25.006Z,1191.00
2023-05-25T06:07:25.020Z,1197.00
2023-05-25T06:08:25.000Z,1203.00
2023-05-25T06:09:25.005Z,1210.00
2023-05-25T06:10:24.962Z,1254.00
2023-05-25T06:11:24.940Z,1268.00
2023-05-25T06:12:24.914Z,1278.00
2023-05-25T06:13:24.948Z,1294.00
2023-05-25T06:14:27.483Z,1315.00
2023-05-25T06:15:24.906Z,1334.00
2023-05-25T06:16:24.908Z,1363.00
2023-05-25T06:17:24.868Z,1383.00
2023-05-25T06:18:24.790Z,1442.00
2023-05-25T06:19:24.815Z,1448.00
2023-05-25T06:20:24.796Z,1452.00
2023-05-25T06:21:24.795Z,1465.00
2023-05-25T06:22:24.705Z,1495.00
2023-05-25T06:23:24.694Z,1514.00
2023-05-25T06:24:24.721Z,1526.00
2023-05-25T06:25:24.679Z,1554.00
2023-05-25T06:26:24.665Z,1571.00
2023-05-25T06:27:24.641Z,1589.00
2023-05-25T06:28:24.622Z,1604.00
2023-05-25T06:29:24.603Z,1622.00
2023-05-25T06:30:24.559Z,1644.00
2023-05-25T06:31:24.563Z,1656.00
2023-05-25T06:32:24.558Z,1642.00
2023-05-25T06:33:24.522Z,1639.00
2023-05-25T06:34:24.483Z,1644.00
2023-05-25T06:35:24.472Z,1661.00
2023-05-25T06:36:24.467Z,1671.00
2023-05-25T06:37:24.414Z,1681.00
2023-05-25T06:38:24.398Z,1685.00
2023-05-25T06:39:24.369Z,1686.00
2023-05-25T06:40:24.369Z,1677.00
2023-05-25T06:41:24.384Z,1541.00
2023-05-25T06:42:24.322Z,1531.00
2023-05-25T06:43:24.336Z,1622.00
2023-05-25T06:44:24.318Z,1603.00
2023-05-25T06:45:24.325Z,1616.00
2023-05-25T06:46:24.300Z,1283.00
2023-05-25T06:47:24.356Z,1205.00
2023-05-25T06:48:24.249Z,1295.00
2023-05-25T06:49:24.269Z,1314.00
2023-05-25T06:50:24.274Z,1415.00
2023-05-25T06:51:24.258Z,1433.00
2023-05-25T06:52:24.254Z,1455.00
2023-05-25T06:53:24.253Z,1521.00
2023-05-25T06:54:24.264Z,1534.00
2023-05-25T06:55:24.262Z,1542.00
2023-05-25T06:56:24.202Z,1557.00
2023-05-25T06:57:24.188Z,1569.00
2023-05-25T06:58:24.164Z,1581.00
2023-05-25T06:59:24.175Z,1580.00
2023-05-25T07:00:24.163Z,1583.00
2023-05-25T07:01:24.202Z,1591.00
2023-05-25T07:02:24.322Z,1597.00
2023-05-25T07:03:24.224Z,1610.00
2023-05-25T07:04:24.245Z,1619.00
2023-05-25T07:05:24.376Z,1625.00
2023-05-25T07:06:24.245Z,1632.00
2023-05-25T07:07:24.266Z,1636.00
2023-05-25T07:08:24.261Z,1641.00
2023-05-25T07:09:24.303Z,1651.00
2023-05-25T07:10:24.302Z,1665.00
2023-05-25T07:11:24.327Z,1683.00
2023-05-25T07:12:24.308Z,1699.00
2023-05-25T07:13:24.316Z,1724.00
2023-05-25T07:14:24.330Z,1770.00
2023-05-25T07:15:24.339Z,1779.00
2023-05-25T07:16:24.354Z,1786.00
2023-05-25T07:17:24.359Z,1797.00
2023-05-25T07:18:24.306Z,1809.00
2023-05-25T07:19:24.319Z,1829.00
2023-05-25T07:20:24.383Z,1846.00
2023-05-25T07:21:24.270Z,1872.00
2023-05-25T07:22:24.276Z,1897.00
2023-05-25T07:23:24.244Z,1914.00
2023-05-25T07:24:24.249Z,1931.00
2023-05-25T07:25:24.283Z,1942.00
2023-05-25T07:26:24.219Z,1958.00
2023-05-25T07:27:24.208Z,1975.00
2023-05-25T07:28:24.173Z,1999.00
2023-05-25T07:29:24.187Z,2013.00
2023-05-25T07:30:24.218Z,2029.00
2023-05-25T07:31:24.289Z,2039.00
2023-05-25T07:32:24.221Z,2056.00
2023-05-25T07:33:24.227Z,2066.00
2023-05-25T07:34:25.754Z,2089.00
2023-05-25T07:35:24.189Z,2105.00
2023-05-25T07:36:24.221Z,2121.00
2023-05-25T07:37:24.169Z,2141.00
2023-05-25T07:38:24.170Z,2164.00
2023-05-25T07:39:24.137Z,2173.00
2023-05-25T07:40:24.154Z,2189.00
2023-05-25T07:41:24.147Z,2192.00
2023-05-25T07:42:24.129Z,2204.00
2023-05-25T07:43:24.130Z,2209.00
2023-05-25T07:44:24.090Z,2040.00
2023-05-25T07:45:24.077Z,1724.00
2023-05-25T07:46:24.122Z,1627.00
2023-05-25T07:47:24.077Z,1519.00
2023-05-25T07:48:24.042Z,1370.00
2023-05-25T07:49:24.056Z,1374.00
2023-05-25T07:50:24.025Z,1355.00
2023-05-25T07:51:24.002Z,1356.00
2023-05-25T07:52:24.017Z,1315.00
2023-05-25T07:53:24.020Z,1312.00
2023-05-25T07:54:23.991Z,1199.00
2023-05-25T07:55:23.979Z,1201.00
2023-05-25T07:56:24.001Z,1207.00
2023-05-25T07:57:23.973Z,1196.00
2023-05-25T07:58:23.994Z,1180.00
2023-05-25T07:59:23.971Z,1137.00
2023-05-25T08:00:23.995Z,1076.00
2023-05-25T08:01:26.244Z,1067.00
2023-05-25T08:02:24.190Z,1050.00
2023-05-25T08:03:39.793Z,1046.00
2023-05-25T08:04:25.132Z,1009.00
2023-05-25T08:05:23.980Z,989.00
2023-05-25T08:06:23.972Z,945.00
2023-05-25T08:07:24.010Z,932.00
2023-05-25T08:08:23.995Z,932.00
2023-05-25T08:09:24.015Z,929.00
2023-05-25T08:10:23.973Z,924.00
2023-05-25T08:11:23.996Z,906.00
2023-05-25T08:12:38.398Z,886.00
2023-05-25T08:13:24.996Z,872.00
2023-05-25T08:14:24.003Z,863.00
2023-05-25T08:15:23.985Z,842.00
2023-05-25T08:16:24.090Z,834.00
2023-05-25T08:17:24.073Z,821.00
2023-05-25T08:18:23.983Z,809.00
2023-05-25T08:19:24.068Z,798.00
2023-05-25T08:20:23.995Z,789.00
2023-05-25T08:21:23.987Z,777.00
2023-05-25T08:22:24.010Z,766.00
2023-05-25T08:23:23.998Z,750.00
2023-05-25T08:24:24.038Z,750.00
2023-05-25T08:25:24.083Z,741.00
2023-05-25T08:26:41.236Z,723.00
2023-05-25T08:27:25.100Z,704.00
2023-05-25T08:28:24.128Z,694.00
2023-05-25T08:29:24.115Z,695.00
2023-05-25T08:30:24.101Z,692.00
2023-05-25T08:31:24.198Z,690.00
2023-05-25T08:32:24.176Z,690.00
2023-05-25T08:33:25.880Z,690.00
2023-05-25T08:34:24.081Z,689.00
2023-05-25T08:35:24.057Z,686.00
2023-05-25T08:36:24.085Z,676.00
2023-05-25T08:37:24.080Z,666.00
2023-05-25T08:38:24.097Z,676.00
2023-05-25T08:39:24.122Z,751.00
2023-05-25T08:40:24.070Z,768.00
2023-05-25T08:41:24.100Z,756.00
2023-05-25T08:42:24.116Z,755.00
2023-05-25T08:43:24.097Z,760.00
2023-05-25T08:44:24.124Z,773.00
2023-05-25T08:45:35.300Z,815.00
2023-05-25T08:46:25.088Z,827.00
2023-05-25T08:47:24.077Z,875.00
2023-05-25T08:48:39.553Z,860.00
2023-05-25T08:49:25.118Z,895.00
2023-05-25T08:50:24.047Z,909.00
2023-05-25T08:51:24.063Z,923.00
2023-05-25T08:52:24.094Z,923.00
2023-05-25T08:53:24.058Z,918.00
2023-05-25T08:54:24.079Z,902.00
2023-05-25T08:55:24.057Z,896.00
2023-05-25T08:56:24.075Z,882.00
2023-05-25T08:57:24.029Z,885.00
2023-05-25T08:58:24.033Z,899.00
2023-05-25T08:59:24.106Z,912.00
2023-05-25T09:00:24.139Z,1016.00
2023-05-25T09:01:24.449Z,1022.00
2023-05-25T09:02:24.403Z,1031.00
2023-05-25T09:03:24.409Z,1032.00
2023-05-25T09:04:24.376Z,978.00
2023-05-25T09:05:24.425Z,1063.00
2023-05-25T09:06:24.471Z,982.00
2023-05-25T09:07:24.521Z,1078.00
2023-05-25T09:08:24.560Z,1095.00
2023-05-25T09:09:24.602Z,1098.00
2023-05-25T09:10:24.659Z,1099.00
2023-05-25T09:11:37.337Z,1151.00
2023-05-25T09:12:25.652Z,1176.00
2023-05-25T09:13:24.642Z,1286.00
2023-05-25T09:14:24.658Z,1287.00
2023-05-25T09:15:24.642Z,1292.00
2023-05-25T09:16:24.682Z,1296.00
2023-05-25T09:17:24.624Z,1327.00
2023-05-25T09:18:24.649Z,1345.00
2023-05-25T09:19:24.586Z,1353.00
2023-05-25T09:20:24.616Z,1356.00
2023-05-25T09:21:24.573Z,1366.00
2023-05-25T09:22:24.583Z,1384.00
2023-05-25T09:23:24.579Z,1397.00
2023-05-25T09:24:24.611Z,1412.00
2023-05-25T09:25:24.567Z,1425.00
2023-05-25T09:26:24.517Z,1451.00
2023-05-25T09:27:24.527Z,1484.00
2023-05-25T09:28:27.010Z,1484.00
2023-05-25T09:29:24.484Z,1483.00
2023-05-25T09:30:24.445Z,1451.00
2023-05-25T09:31:24.486Z,1438.00
2023-05-25T09:32:24.579Z,1452.00
2023-05-25T09:33:24.375Z,1462.00
2023-05-25T09:34:24.388Z,1469.00
2023-05-25T09:35:24.388Z,1472.00
2023-05-25T09:36:24.405Z,1473.00
2023-05-25T09:37:24.473Z,1474.00
2023-05-25T09:38:24.599Z,1474.00
2023-05-25T09:39:24.296Z,1475.00
2023-05-25T09:40:24.220Z,1473.00
2023-05-25T09:41:24.221Z,1297.00
2023-05-25T09:42:24.185Z,1305.00
2023-05-25T09:43:39.530Z,1300.00
2023-05-25T09:44:25.128Z,1099.00
2023-05-25T09:45:24.152Z,1085.00
2023-05-25T09:46:24.213Z,1115.00
2023-05-25T09:47:24.090Z,1175.00
2023-05-25T09:48:24.058Z,1166.00
2023-05-25T09:49:24.024Z,1172.00
2023-05-25T09:50:24.709Z,1164.00
2023-05-25T09:51:23.979Z,1176.00
2023-05-25T09:52:23.954Z,1182.00
2023-05-25T09:53:23.957Z,1259.00
2023-05-25T09:54:23.905Z,1249.00
2023-05-25T09:55:23.875Z,1243.00
2023-05-25T09:56:23.857Z,1240.00
2023-05-25T09:57:23.823Z,1234.00
2023-05-25T09:58:23.805Z,1234.00
2023-05-25T09:59:23.755Z,1226.00
2023-05-25T10:00:23.716Z,1202.00
2023-05-25T10:01:23.729Z,1156.00
2023-05-25T10:02:23.773Z,1172.00
2023-05-25T10:03:23.726Z,1181.00
2023-05-25T10:04:23.770Z,1188.00
2023-05-25T10:05:23.770Z,1196.00
2023-05-25T10:06:23.786Z,1200.00
2023-05-25T10:07:23.788Z,1104.00
2023-05-25T10:08:23.918Z,1133.00
2023-05-25T10:09:23.884Z,1161.00
2023-05-25T10:10:23.807Z,1164.00
2023-05-25T10:11:23.826Z,1160.00
2023-05-25T10:12:23.793Z,1168.00
2023-05-25T10:13:23.833Z,1173.00
2023-05-25T10:14:24.610Z,1198.00
2023-05-25T10:15:23.838Z,1196.00
2023-05-25T10:16:23.864Z,1196.00
2023-05-25T10:17:23.896Z,1198.00
2023-05-25T10:18:23.817Z,1203.00
2023-05-25T10:19:23.771Z,1200.00
2023-05-25T10:20:24.959Z,1206.00
2023-05-25T10:21:23.851Z,1207.00
2023-05-25T10:22:23.747Z,1204.00
2023-05-25T10:23:23.739Z,1201.00
2023-05-25T10:24:23.750Z,1195.00
2023-05-25T10:25:23.721Z,1192.00
2023-05-25T10:26:23.788Z,1190.00
2023-05-25T10:27:27.549Z,1185.00
2023-05-25T10:28:23.730Z,1181.00
2023-05-25T10:29:23.701Z,1184.00
2023-05-25T10:30:23.672Z,1191.00
2023-05-25T10:31:23.690Z,1190.00
2023-05-25T10:32:23.715Z,1183.00
2023-05-25T10:33:23.647Z,1186.00
2023-05-25T10:34:23.640Z,1184.00
2023-05-25T10:35:23.620Z,1180.00
2023-05-25T10:36:23.620Z,1091.00
2023-05-25T10:37:23.641Z,1099.00
2023-05-25T10:38:23.590Z,1118.00
2023-05-25T10:39:23.612Z,1115.00
2023-05-25T10:40:23.583Z,1114.00
2023-05-25T10:41:23.600Z,1129.00
2023-05-25T10:42:23.552Z,1144.00
2023-05-25T10:43:23.565Z,1151.00
2023-05-25T10:44:23.558Z,1151.00
2023-05-25T10:45:23.615Z,1140.00
2023-05-25T10:46:23.697Z,1046.00
2023-05-25T10:47:23.634Z,1035.00
2023-05-25T10:48:23.635Z,1040.00
2023-05-25T10:49:23.706Z,1032.00
2023-05-25T10:50:23.538Z,1028.00
2023-05-25T10:51:25.282Z,982.00
2023-05-25T10:52:23.482Z,975.00
2023-05-25T10:53:23.471Z,1012.00
2023-05-25T10:54:23.486Z,1020.00
2023-05-25T10:55:23.439Z,1019.00
2023-05-25T10:56:23.466Z,973.00
2023-05-25T10:57:23.443Z,940.00
2023-05-25T10:58:23.420Z,934.00
2023-05-25T10:59:23.432Z,928.00
2023-05-25T11:00:23.448Z,917.00
2023-05-25T11:01:23.460Z,916.00
2023-05-25T11:02:23.770Z,924.00
2023-05-25T11:03:23.361Z,929.00
2023-05-25T11:04:23.405Z,931.00
2023-05-25T11:05:23.364Z,935.00
2023-05-25T11:06:23.372Z,941.00
2023-05-25T11:07:23.362Z,946.00
2023-05-25T11:08:23.344Z,943.00
2023-05-25T11:09:23.339Z,938.00
2023-05-25T11:10:23.322Z,928.00
2023-05-25T11:11:23.322Z,847.00
2023-05-25T11:12:23.332Z,881.00
2023-05-25T11:13:23.272Z,887.00
2023-05-25T11:14:23.282Z,887.00
2023-05-25T11:15:23.276Z,887.00
2023-05-25T11:16:23.293Z,891.00
2023-05-25T11:17:23.340Z,895.00
2023-05-25T11:18:23.257Z,898.00
2023-05-25T11:19:23.267Z,897.00
2023-05-25T11:20:23.320Z,884.00
2023-05-25T11:21:23.232Z,861.00
2023-05-25T11:22:23.243Z,847.00
2023-05-25T11:23:23.244Z,824.00
2023-05-25T11:24:23.212Z,823.00
2023-05-25T11:25:23.171Z,820.00
2023-05-25T11:26:23.144Z,817.00
2023-05-25T11:27:23.159Z,823.00
2023-05-25T11:28:23.136Z,840.00
2023-05-25T11:29:23.146Z,845.00
2023-05-25T11:30:23.104Z,849.00
2023-05-25T11:31:23.213Z,848.00
2023-05-25T11:32:23.261Z,845.00
2023-05-25T11:33:23.104Z,844.00
2023-05-25T11:34:23.090Z,843.00
2023-05-25T11:35:23.091Z,839.00
2023-05-25T11:36:23.047Z,836.00
2023-05-25T11:37:23.035Z,831.00
2023-05-25T11:38:23.087Z,824.00
2023-05-25T11:39:23.417Z,818.00
2023-05-25T11:40:22.997Z,805.00
2023-05-25T11:41:23.024Z,792.00
2023-05-25T11:42:23.004Z,781.00
2023-05-25T11:43:22.998Z,778.00
2023-05-25T11:44:23.005Z,772.00
2023-05-25T11:45:22.963Z,773.00
2023-05-25T11:46:23.022Z,774.00
2023-05-25T11:47:23.199Z,776.00
2023-05-25T11:48:22.999Z,781.00
2023-05-25T11:49:22.939Z,786.00
2023-05-25T11:50:22.888Z,789.00
2023-05-25T11:51:22.895Z,787.00
2023-05-25T11:52:22.920Z,785.00
2023-05-25T11:53:22.857Z,786.00
2023-05-25T11:54:22.883Z,784.00
2023-05-25T11:55:22.848Z,785.00
2023-05-25T11:56:34.289Z,785.00
2023-05-25T11:57:23.818Z,787.00
2023-05-25T11:58:22.777Z,787.00
2023-05-25T11:59:24.045Z,789.00
2023-05-25T12:00:22.722Z,790.00
2023-05-25T12:01:22.700Z,792.00
2023-05-25T12:02:22.698Z,793.00
2023-05-25T12:03:22.702Z,787.00
2023-05-25T12:04:24.169Z,786.00
2023-05-25T12:05:22.614Z,787.00
2023-05-25T12:06:22.559Z,786.00
2023-05-25T12:07:22.578Z,790.00
2023-05-25T12:08:22.494Z,788.00
2023-05-25T12:09:22.556Z,783.00
2023-05-25T12:10:22.492Z,785.00
2023-05-25T12:11:22.452Z,784.00
2023-05-25T12:12:22.449Z,785.00
2023-05-25T12:13:22.401Z,785.00
2023-05-25T12:14:22.348Z,784.00
2023-05-25T12:15:22.325Z,786.00
2023-05-25T12:16:22.336Z,789.00
2023-05-25T12:17:22.466Z,792.00
2023-05-25T12:18:22.273Z,788.00
2023-05-25T12:19:22.228Z,786.00
2023-05-25T12:20:22.292Z,784.00
2023-05-25T12:21:22.189Z,782.00
2023-05-25T12:22:22.160Z,780.00